Tuesday, October 23, 2018, 9:27 PM EDT
Back to Local

KOWD, Norwood Memorial Airport

Location: Norwood, MA, United States Lat: 42.183
Local Time: 9:27 PM EDT ( 1:27 GMT) Lon: -71.167
Time Zone: US/Eastern Elev: 49 ft

Show me the last for .
Show Decoded

2018-10-23 21:00 METAR KOWD 240100Z 00000KT 3/4SM BR FEW002 SCT033 BKN075 06/06 A2990 RMK AO2
                 T00610056 =
2018-10-23 20:53 METAR KOWD 240053Z 00000KT 5SM BR SCT002 BKN070 06/05 A2990 RMK AO2 SLP125
                 T00560050 =
2018-10-23 20:04 METAR KOWD 240004Z 00000KT 1/2SM FG VV002 07/07 A2988 RMK AO2 T00720067 =
2018-10-23 19:57 METAR KOWD 232357Z 00000KT 1/2SM FG VV003 08/07 A2988 RMK AO2 LTG DSNT NE
                 T00780067 =
2018-10-23 19:53 METAR KOWD 232353Z 00000KT 1 1/4SM BR FEW050 08/07 A2988 RMK AO2 LTG DSNT NE
                 RAE18 SLP119 P0002 60029 T00830067 10139 20083 50002 =
2018-10-23 18:53 METAR KOWD 232253Z VRB03G16KT 3SM RA FEW023 BKN039 OVC048 11/08 A2989 RMK AO2
                 LTG DSNT N AND NE RAB37 PRESFR SLP121 P0004 T01060078 =
2018-10-23 18:50 METAR KOWD 232250Z 32005G16KT 3SM +RA BR SCT023 BKN039 OVC050 11/08 A2991 RMK
                 AO2 LTG DSNT N RAB37 P0003 =
2018-10-23 18:38 METAR KOWD 232238Z 30011G19KT 9SM -RA FEW009 BKN024 OVC043 11/09 A2992 RMK AO2
                 LTG DSNT N AND SW RAB37 P0000 T01060094 =
2018-10-23 18:15 METAR KOWD 232215Z 31003KT 10SM BKN024 09/08 A2988 RMK AO2 LTG DSNT SW AND NW
                 T00940083 =
2018-10-23 17:53 METAR KOWD 232153Z 10003KT 10SM BKN030 10/08 A2988 RMK AO2 LTG DSNT W AND NW
                 SLP117 T01000083 =
2018-10-23 16:53 METAR KOWD 232053Z 10006KT 10SM SCT026 OVC035 12/11 A2990 RMK AO2 LTG DSNT NE
                 RAE42 TSB21E43 SLP124 P0014 60023 T01220106 56021 =
2018-10-23 16:49 METAR KOWD 232049Z 09006KT 10SM VCTS SCT026 OVC035CB 12/11 A2990 RMK AO2 RAE42
                 TSB21E43 TS E MOVG E P0014 =
2018-10-23 16:36 METAR KOWD 232036Z 08007KT 3SM -TSRA BR SCT026 OVC035CB 12/10 A2991 RMK AO2 LTG
                 DSNT SE AND S TSB21 PRESFR TS OVHD MOVG E P0013 T01170100 =
2018-10-23 16:27 METAR KOWD 232027Z VRB04KT 1 1/4SM +TSRA BR SCT026 OVC035CB 12/10 A2992 RMK AO2
                 TSB21 TS OVHD MOVG E P0011 T01170100 =
2018-10-23 16:15 METAR KOWD 232015Z 31003KT 1 3/4SM RA BR FEW026 BKN035 OVC048 11/10 A2994 RMK
                 AO2 LTG DSNT S P0007 T01110100 =
2018-10-23 16:00 METAR KOWD 232000Z 10005KT 3SM -RA BR BKN041 OVC050 12/09 A2994 RMK AO2 LTG DSNT
                 S P0003 T01170094 =
2018-10-23 15:53 METAR KOWD 231953Z 12006KT 1 3/4SM +RA BR SCT043 BKN050 OVC060 12/10 A2994 RMK
                 AO2 LTG DSNT SE-SW SLP137 P0008 T01170100 =
2018-10-23 14:53 METAR KOWD 231853Z 13006KT 4SM -RA FEW018 BKN031 OVC055 13/10 A2996 RMK AO2
                 RAE1756B31 SLP146 P0001 T01330100 =
2018-10-23 14:16 METAR KOWD 231816Z 09008KT 10SM BKN028 OVC037 14/09 A2999 RMK AO2 RAE1756 P0000
                 T01390094 =
2018-10-23 13:53 METAR KOWD 231753Z 08003KT 10SM -RA FEW032 BKN050 OVC070 14/10 A3000 RMK AO2
                 RAB28 SLP159 P0000 60000 T01390100 10139 20056 58034 =
2018-10-23 12:53 METAR KOWD 231653Z 12004KT 10SM SCT050 SCT075 OVC090 13/08 A3004 RMK AO2 SLP173
                 T01330078 =
2018-10-23 11:53 METAR KOWD 231553Z 16009KT 10SM FEW035 OVC095 13/08 A3008 RMK AO2 SLP186
                 T01330078 =
2018-10-23 10:53 METAR KOWD 231453Z 15006KT 10SM OVC100 13/08 A3010 RMK AO2 SLP193 T01280078
                 58009 =
2018-10-23 09:53 METAR KOWD 231353Z 16005KT 10SM OVC110 12/07 A3011 RMK AO2 SLP197 T01170067 =
2018-10-23 08:53 METAR KOWD 231253Z 17004KT 10SM OVC100 10/06 A3013 RMK AO2 SLP201 T01000061 =
2018-10-23 07:53 METAR KOWD 231153Z 00000KT 10SM OVC100 06/04 A3013 RMK AO2 SLP203 T00560039
                 10056 21006 58006 =
2018-10-23 06:53 METAR KOWD 231053Z 00000KT 10SM OVC095 04/03 A3013 RMK AO2 SLP205 T00440028 =
2018-10-23 05:53 METAR KOWD 230953Z AUTO 00000KT 10SM OVC095 03/02 A3015 RMK AO2 SLP208 T00330017
                 =
2018-10-23 04:53 METAR KOWD 230853Z AUTO 00000KT 10SM OVC090 03/01 A3015 RMK AO2 SLP208 T00280011
                 56011 =
2018-10-23 03:53 METAR KOWD 230753Z AUTO 00000KT 10SM OVC090 02/01 A3016 RMK AO2 SLP212 T00170006
                 =
2018-10-23 02:53 METAR KOWD 230653Z AUTO 00000KT 10SM OVC090 01/M01 A3017 RMK AO2 SLP216
                 T00061006 =
2018-10-23 01:53 METAR KOWD 230553Z AUTO 00000KT 10SM FEW055 SCT090 00/M02 A3018 RMK AO2 SLP219
                 I1001 I6001 T00001017 10044 21011 58005 =
2018-10-23 00:53 METAR KOWD 230453Z AUTO 00000KT 10SM FEW095 M01/M02 A3019 RMK AO2 SLP224
                 T10061017 401281050 =
2018-10-22 23:53 METAR KOWD 230353Z AUTO 00000KT 10SM CLR 01/M01 A3019 RMK AO2 SLP225 T00061011 =
2018-10-22 22:53 METAR KOWD 230253Z AUTO 00000KT 10SM SCT060 SCT095 02/00 A3019 RMK AO2 SLP225
                 T00170000 50004 =
2018-10-22 21:53 METAR KOWD 230153Z 00000KT 10SM SCT060 02/M01 A3020 RMK AO2 SLP226 T00171006 =

Support USWX by starting your Amazon purchase here.